sensor_id;sensor_type;location;lat;lon;timestamp;P1;durP1;ratioP1;P2;durP2;ratioP2
34982;SDS011;21187;50.976;13.720;2022-10-16T00:02:28;3.17;;;2.30;;
34982;SDS011;21187;50.976;13.720;2022-10-16T00:07:30;3.83;;;3.00;;
34982;SDS011;21187;50.976;13.720;2022-10-16T00:12:32;4.78;;;2.47;;
34982;SDS011;21187;50.976;13.720;2022-10-16T00:17:34;4.82;;;2.90;;
34982;SDS011;21187;50.976;13.720;2022-10-16T00:22:36;3.97;;;2.67;;
34982;SDS011;21187;50.976;13.720;2022-10-16T00:27:37;3.20;;;2.47;;
34982;SDS011;21187;50.976;13.720;2022-10-16T00:32:39;6.65;;;2.60;;
34982;SDS011;21187;50.976;13.720;2022-10-16T00:37:41;4.88;;;2.63;;
34982;SDS011;21187;50.976;13.720;2022-10-16T00:42:43;4.22;;;2.72;;
34982;SDS011;21187;50.976;13.720;2022-10-16T00:47:46;3.47;;;2.47;;
34982;SDS011;21187;50.976;13.720;2022-10-16T00:52:52;7.00;;;2.72;;
34982;SDS011;21187;50.976;13.720;2022-10-16T00:57:54;8.02;;;2.67;;
34982;SDS011;21187;50.976;13.720;2022-10-16T01:02:57;5.13;;;2.80;;
34982;SDS011;21187;50.976;13.720;2022-10-16T01:13:09;9.20;;;5.25;;
34982;SDS011;21187;50.976;13.720;2022-10-16T01:18:14;10.43;;;3.28;;
34982;SDS011;21187;50.976;13.720;2022-10-16T01:34:05;2.50;;;1.88;;
34982;SDS011;21187;50.976;13.720;2022-10-16T01:39:29;4.03;;;2.40;;
34982;SDS011;21187;50.976;13.720;2022-10-16T01:44:36;4.53;;;2.17;;
34982;SDS011;21187;50.976;13.720;2022-10-16T01:49:41;5.88;;;2.60;;
34982;SDS011;21187;50.976;13.720;2022-10-16T01:54:46;2.78;;;1.83;;
34982;SDS011;21187;50.976;13.720;2022-10-16T01:59:51;2.17;;;1.70;;
34982;SDS011;21187;50.976;13.720;2022-10-16T02:04:58;3.92;;;1.80;;
34982;SDS011;21187;50.976;13.720;2022-10-16T02:10:22;3.25;;;1.58;;
34982;SDS011;21187;50.976;13.720;2022-10-16T02:15:26;2.38;;;1.65;;
34982;SDS011;21187;50.976;13.720;2022-10-16T02:20:28;4.28;;;1.83;;
34982;SDS011;21187;50.976;13.720;2022-10-16T02:25:38;3.20;;;2.20;;
34982;SDS011;21187;50.976;13.720;2022-10-16T02:30:55;5.07;;;3.50;;
34982;SDS011;21187;50.976;13.720;2022-10-16T02:36:04;5.35;;;3.35;;
34982;SDS011;21187;50.976;13.720;2022-10-16T02:41:07;7.22;;;4.25;;
34982;SDS011;21187;50.976;13.720;2022-10-16T02:46:10;6.05;;;3.58;;
34982;SDS011;21187;50.976;13.720;2022-10-16T02:51:12;8.77;;;3.78;;
34982;SDS011;21187;50.976;13.720;2022-10-16T02:56:14;10.52;;;4.20;;
34982;SDS011;21187;50.976;13.720;2022-10-16T03:01:16;7.28;;;4.57;;
34982;SDS011;21187;50.976;13.720;2022-10-16T03:06:18;5.50;;;3.42;;
34982;SDS011;21187;50.976;13.720;2022-10-16T03:11:20;6.85;;;3.47;;
34982;SDS011;21187;50.976;13.720;2022-10-16T03:16:22;7.80;;;3.92;;
34982;SDS011;21187;50.976;13.720;2022-10-16T03:21:23;4.55;;;2.90;;
34982;SDS011;21187;50.976;13.720;2022-10-16T03:26:26;8.50;;;3.90;;
34982;SDS011;21187;50.976;13.720;2022-10-16T03:31:28;7.68;;;3.03;;
34982;SDS011;21187;50.976;13.720;2022-10-16T03:36:30;4.65;;;2.70;;
34982;SDS011;21187;50.976;13.720;2022-10-16T03:41:32;3.72;;;2.50;;
34982;SDS011;21187;50.976;13.720;2022-10-16T03:46:34;4.82;;;2.90;;
34982;SDS011;21187;50.976;13.720;2022-10-16T03:51:36;4.00;;;2.38;;
34982;SDS011;21187;50.976;13.720;2022-10-16T03:56:38;3.08;;;1.90;;
34982;SDS011;21187;50.976;13.720;2022-10-16T04:01:40;2.55;;;1.75;;
34982;SDS011;21187;50.976;13.720;2022-10-16T04:06:42;4.18;;;1.70;;
34982;SDS011;21187;50.976;13.720;2022-10-16T04:11:44;2.38;;;1.65;;
34982;SDS011;21187;50.976;13.720;2022-10-16T04:16:46;4.30;;;1.85;;
34982;SDS011;21187;50.976;13.720;2022-10-16T04:21:48;1.83;;;1.40;;
34982;SDS011;21187;50.976;13.720;2022-10-16T04:26:49;2.30;;;1.60;;
34982;SDS011;21187;50.976;13.720;2022-10-16T04:31:51;4.03;;;1.60;;
34982;SDS011;21187;50.976;13.720;2022-10-16T04:36:53;2.75;;;1.55;;
34982;SDS011;21187;50.976;13.720;2022-10-16T04:41:55;1.38;;;1.20;;
34982;SDS011;21187;50.976;13.720;2022-10-16T04:46:57;4.90;;;1.40;;
34982;SDS011;21187;50.976;13.720;2022-10-16T04:51:59;1.75;;;1.25;;
34982;SDS011;21187;50.976;13.720;2022-10-16T04:57:01;1.42;;;1.10;;
34982;SDS011;21187;50.976;13.720;2022-10-16T05:02:03;6.25;;;3.53;;
34982;SDS011;21187;50.976;13.720;2022-10-16T05:07:05;2.47;;;1.75;;
34982;SDS011;21187;50.976;13.720;2022-10-16T05:12:07;3.33;;;2.17;;
34982;SDS011;21187;50.976;13.720;2022-10-16T05:17:08;4.65;;;3.00;;
34982;SDS011;21187;50.976;13.720;2022-10-16T05:22:10;7.32;;;3.55;;
34982;SDS011;21187;50.976;13.720;2022-10-16T05:27:12;5.90;;;3.53;;
34982;SDS011;21187;50.976;13.720;2022-10-16T05:32:20;6.00;;;3.63;;
34982;SDS011;21187;50.976;13.720;2022-10-16T05:37:22;5.68;;;3.00;;
34982;SDS011;21187;50.976;13.720;2022-10-16T05:42:24;4.85;;;3.38;;
34982;SDS011;21187;50.976;13.720;2022-10-16T05:47:26;5.78;;;4.03;;
34982;SDS011;21187;50.976;13.720;2022-10-16T05:52:29;6.60;;;3.60;;
34982;SDS011;21187;50.976;13.720;2022-10-16T05:57:31;5.90;;;3.72;;
34982;SDS011;21187;50.976;13.720;2022-10-16T06:02:32;7.25;;;4.05;;
34982;SDS011;21187;50.976;13.720;2022-10-16T06:07:35;6.40;;;3.72;;
34982;SDS011;21187;50.976;13.720;2022-10-16T06:12:37;4.70;;;3.00;;
34982;SDS011;21187;50.976;13.720;2022-10-16T06:17:39;5.03;;;3.20;;
34982;SDS011;21187;50.976;13.720;2022-10-16T06:22:41;4.65;;;2.60;;
34982;SDS011;21187;50.976;13.720;2022-10-16T06:27:43;3.25;;;2.45;;
34982;SDS011;21187;50.976;13.720;2022-10-16T06:32:45;6.43;;;2.92;;
34982;SDS011;21187;50.976;13.720;2022-10-16T06:37:47;5.75;;;2.45;;
34982;SDS011;21187;50.976;13.720;2022-10-16T06:42:49;2.42;;;2.13;;
34982;SDS011;21187;50.976;13.720;2022-10-16T06:47:51;3.58;;;2.17;;
34982;SDS011;21187;50.976;13.720;2022-10-16T06:52:52;2.03;;;1.48;;
34982;SDS011;21187;50.976;13.720;2022-10-16T06:57:54;2.60;;;1.27;;
34982;SDS011;21187;50.976;13.720;2022-10-16T07:02:56;4.03;;;1.20;;
34982;SDS011;21187;50.976;13.720;2022-10-16T07:07:58;0.90;;;0.80;;
34982;SDS011;21187;50.976;13.720;2022-10-16T07:13:00;4.70;;;0.70;;
34982;SDS011;21187;50.976;13.720;2022-10-16T07:18:02;0.50;;;0.50;;
34982;SDS011;21187;50.976;13.720;2022-10-16T07:23:04;2.60;;;0.47;;
34982;SDS011;21187;50.976;13.720;2022-10-16T07:28:05;0.50;;;0.40;;
34982;SDS011;21187;50.976;13.720;2022-10-16T07:33:08;0.20;;;0.20;;
34982;SDS011;21187;50.976;13.720;2022-10-16T07:38:10;0.32;;;0.32;;
34982;SDS011;21187;50.976;13.720;2022-10-16T07:43:12;0.80;;;0.50;;
34982;SDS011;21187;50.976;13.720;2022-10-16T07:48:16;1.05;;;0.57;;
34982;SDS011;21187;50.976;13.720;2022-10-16T07:53:19;0.73;;;0.50;;
34982;SDS011;21187;50.976;13.720;2022-10-16T07:58:27;0.75;;;0.60;;
34982;SDS011;21187;50.976;13.720;2022-10-16T08:03:29;1.38;;;0.98;;
34982;SDS011;21187;50.976;13.720;2022-10-16T08:08:31;1.48;;;1.10;;
34982;SDS011;21187;50.976;13.720;2022-10-16T08:13:34;7.00;;;3.40;;
34982;SDS011;21187;50.976;13.720;2022-10-16T08:18:37;4.20;;;3.10;;
34982;SDS011;21187;50.976;13.720;2022-10-16T08:23:41;4.63;;;2.92;;
34982;SDS011;21187;50.976;13.720;2022-10-16T08:28:43;3.85;;;2.08;;
34982;SDS011;21187;50.976;13.720;2022-10-16T08:33:45;2.92;;;1.88;;
34982;SDS011;21187;50.976;13.720;2022-10-16T08:38:48;2.00;;;1.40;;
34982;SDS011;21187;50.976;13.720;2022-10-16T08:49:05;1.98;;;1.48;;
34982;SDS011;21187;50.976;13.720;2022-10-16T08:54:36;1.70;;;1.40;;
34982;SDS011;21187;50.976;13.720;2022-10-16T08:59:42;3.72;;;1.10;;
34982;SDS011;21187;50.976;13.720;2022-10-16T09:04:51;1.85;;;0.77;;
34982;SDS011;21187;50.976;13.720;2022-10-16T09:15:16;0.85;;;0.60;;
34982;SDS011;21187;50.976;13.720;2022-10-16T09:25:50;3.60;;;0.75;;
34982;SDS011;21187;50.976;13.720;2022-10-16T09:30:52;1.65;;;0.60;;
34982;SDS011;21187;50.976;13.720;2022-10-16T09:35:55;1.85;;;0.73;;
34982;SDS011;21187;50.976;13.720;2022-10-16T09:41:00;0.20;;;0.20;;
34982;SDS011;21187;50.976;13.720;2022-10-16T09:51:36;0.57;;;0.43;;
34982;SDS011;21187;50.976;13.720;2022-10-16T09:56:39;0.77;;;0.45;;
34982;SDS011;21187;50.976;13.720;2022-10-16T10:06:54;0.30;;;0.30;;
34982;SDS011;21187;50.976;13.720;2022-10-16T10:12:01;0.50;;;0.47;;
34982;SDS011;21187;50.976;13.720;2022-10-16T10:22:15;1.20;;;0.50;;
34982;SDS011;21187;50.976;13.720;2022-10-16T10:33:39;0.45;;;0.30;;
34982;SDS011;21187;50.976;13.720;2022-10-16T11:10:15;0.63;;;0.40;;
34982;SDS011;21187;50.976;13.720;2022-10-16T11:15:32;3.50;;;0.60;;
34982;SDS011;21187;50.976;13.720;2022-10-16T11:26:00;0.60;;;0.45;;
34982;SDS011;21187;50.976;13.720;2022-10-16T11:36:51;1.10;;;0.50;;
34982;SDS011;21187;50.976;13.720;2022-10-16T11:42:16;0.52;;;0.38;;
34982;SDS011;21187;50.976;13.720;2022-10-16T11:59:16;1.45;;;0.40;;
34982;SDS011;21187;50.976;13.720;2022-10-16T12:09:30;0.60;;;0.30;;
34982;SDS011;21187;50.976;13.720;2022-10-16T12:14:36;1.42;;;0.50;;
34982;SDS011;21187;50.976;13.720;2022-10-16T12:20:24;0.40;;;0.30;;
34982;SDS011;21187;50.976;13.720;2022-10-16T12:25:28;0.68;;;0.28;;
34982;SDS011;21187;50.976;13.720;2022-10-16T12:30:32;2.50;;;0.40;;
34982;SDS011;21187;50.976;13.720;2022-10-16T12:35:42;1.13;;;0.30;;
34982;SDS011;21187;50.976;13.720;2022-10-16T12:40:47;0.73;;;0.30;;
34982;SDS011;21187;50.976;13.720;2022-10-16T12:51:12;1.83;;;0.50;;
34982;SDS011;21187;50.976;13.720;2022-10-16T13:12:21;0.30;;;0.30;;
34982;SDS011;21187;50.976;13.720;2022-10-16T13:28:10;0.32;;;0.32;;
34982;SDS011;21187;50.976;13.720;2022-10-16T13:33:17;1.02;;;0.52;;
34982;SDS011;21187;50.976;13.720;2022-10-16T13:38:33;0.57;;;0.40;;
34982;SDS011;21187;50.976;13.720;2022-10-16T13:43:46;1.83;;;0.68;;
34982;SDS011;21187;50.976;13.720;2022-10-16T13:48:57;0.95;;;0.60;;
34982;SDS011;21187;50.976;13.720;2022-10-16T13:54:00;0.68;;;0.50;;
34982;SDS011;21187;50.976;13.720;2022-10-16T13:59:05;1.30;;;0.50;;
34982;SDS011;21187;50.976;13.720;2022-10-16T14:04:22;2.88;;;0.55;;
34982;SDS011;21187;50.976;13.720;2022-10-16T14:09:25;0.40;;;0.40;;
34982;SDS011;21187;50.976;13.720;2022-10-16T14:14:49;0.73;;;0.52;;
34982;SDS011;21187;50.976;13.720;2022-10-16T14:19:57;3.10;;;0.80;;
34982;SDS011;21187;50.976;13.720;2022-10-16T14:30:21;2.15;;;0.40;;
34982;SDS011;21187;50.976;13.720;2022-10-16T14:35:36;16.25;;;4.95;;
34982;SDS011;21187;50.976;13.720;2022-10-16T14:40:45;4.93;;;2.10;;
34982;SDS011;21187;50.976;13.720;2022-10-16T14:45:50;8.40;;;0.93;;
34982;SDS011;21187;50.976;13.720;2022-10-16T14:50:55;3.03;;;0.82;;
34982;SDS011;21187;50.976;13.720;2022-10-16T14:55:58;5.13;;;0.43;;
34982;SDS011;21187;50.976;13.720;2022-10-16T15:01:00;1.00;;;0.60;;
34982;SDS011;21187;50.976;13.720;2022-10-16T15:06:02;1.35;;;0.70;;
34982;SDS011;21187;50.976;13.720;2022-10-16T15:11:04;4.70;;;0.93;;
34982;SDS011;21187;50.976;13.720;2022-10-16T15:16:11;1.92;;;1.00;;
34982;SDS011;21187;50.976;13.720;2022-10-16T15:21:33;4.53;;;1.88;;
34982;SDS011;21187;50.976;13.720;2022-10-16T15:26:35;3.13;;;1.43;;
34982;SDS011;21187;50.976;13.720;2022-10-16T15:31:37;2.30;;;1.70;;
34982;SDS011;21187;50.976;13.720;2022-10-16T15:36:40;1.45;;;0.90;;
34982;SDS011;21187;50.976;13.720;2022-10-16T15:41:42;5.85;;;0.82;;
34982;SDS011;21187;50.976;13.720;2022-10-16T15:46:46;1.10;;;0.57;;
34982;SDS011;21187;50.976;13.720;2022-10-16T15:51:49;1.48;;;0.82;;
34982;SDS011;21187;50.976;13.720;2022-10-16T15:56:54;2.65;;;0.88;;
34982;SDS011;21187;50.976;13.720;2022-10-16T16:01:57;3.65;;;0.88;;
34982;SDS011;21187;50.976;13.720;2022-10-16T16:06:59;4.03;;;1.10;;
34982;SDS011;21187;50.976;13.720;2022-10-16T16:12:03;7.95;;;1.25;;
34982;SDS011;21187;50.976;13.720;2022-10-16T16:17:05;3.35;;;1.17;;
34982;SDS011;21187;50.976;13.720;2022-10-16T16:22:07;4.00;;;1.20;;
34982;SDS011;21187;50.976;13.720;2022-10-16T16:27:13;1.88;;;1.05;;
34982;SDS011;21187;50.976;13.720;2022-10-16T16:32:15;8.73;;;3.65;;
34982;SDS011;21187;50.976;13.720;2022-10-16T16:37:18;5.57;;;3.03;;
34982;SDS011;21187;50.976;13.720;2022-10-16T16:42:20;5.28;;;2.50;;
34982;SDS011;21187;50.976;13.720;2022-10-16T16:47:22;5.18;;;2.92;;
34982;SDS011;21187;50.976;13.720;2022-10-16T16:52:24;5.72;;;3.30;;
34982;SDS011;21187;50.976;13.720;2022-10-16T16:57:26;7.05;;;2.35;;
34982;SDS011;21187;50.976;13.720;2022-10-16T17:02:28;26.50;;;9.30;;
34982;SDS011;21187;50.976;13.720;2022-10-16T17:07:33;8.65;;;3.25;;
34982;SDS011;21187;50.976;13.720;2022-10-16T17:12:35;12.45;;;4.40;;
34982;SDS011;21187;50.976;13.720;2022-10-16T17:17:38;9.57;;;4.00;;
34982;SDS011;21187;50.976;13.720;2022-10-16T17:22:40;8.05;;;3.60;;
34982;SDS011;21187;50.976;13.720;2022-10-16T17:27:42;6.22;;;3.45;;
34982;SDS011;21187;50.976;13.720;2022-10-16T17:32:45;8.70;;;4.70;;
34982;SDS011;21187;50.976;13.720;2022-10-16T17:37:47;13.80;;;4.95;;
34982;SDS011;21187;50.976;13.720;2022-10-16T17:42:49;8.82;;;4.45;;
34982;SDS011;21187;50.976;13.720;2022-10-16T17:47:51;6.60;;;3.30;;
34982;SDS011;21187;50.976;13.720;2022-10-16T17:52:53;7.40;;;3.10;;
34982;SDS011;21187;50.976;13.720;2022-10-16T17:57:57;8.38;;;1.60;;
34982;SDS011;21187;50.976;13.720;2022-10-16T18:03:00;5.82;;;1.75;;
34982;SDS011;21187;50.976;13.720;2022-10-16T18:08:02;2.53;;;1.30;;
34982;SDS011;21187;50.976;13.720;2022-10-16T18:13:04;1.48;;;0.77;;
34982;SDS011;21187;50.976;13.720;2022-10-16T18:18:06;3.83;;;1.10;;
34982;SDS011;21187;50.976;13.720;2022-10-16T18:23:08;2.40;;;1.80;;
34982;SDS011;21187;50.976;13.720;2022-10-16T18:28:12;3.53;;;1.73;;
34982;SDS011;21187;50.976;13.720;2022-10-16T18:33:15;8.80;;;4.50;;
34982;SDS011;21187;50.976;13.720;2022-10-16T18:38:18;4.30;;;2.47;;
34982;SDS011;21187;50.976;13.720;2022-10-16T18:43:20;4.00;;;1.75;;
34982;SDS011;21187;50.976;13.720;2022-10-16T18:48:22;2.10;;;1.52;;
34982;SDS011;21187;50.976;13.720;2022-10-16T18:53:25;2.33;;;1.50;;
34982;SDS011;21187;50.976;13.720;2022-10-16T18:58:33;4.05;;;1.85;;
34982;SDS011;21187;50.976;13.720;2022-10-16T19:03:35;6.90;;;3.13;;
34982;SDS011;21187;50.976;13.720;2022-10-16T19:08:39;7.80;;;5.07;;
34982;SDS011;21187;50.976;13.720;2022-10-16T19:13:44;8.82;;;4.50;;
34982;SDS011;21187;50.976;13.720;2022-10-16T19:18:48;7.28;;;4.28;;
34982;SDS011;21187;50.976;13.720;2022-10-16T19:23:53;7.20;;;2.30;;
34982;SDS011;21187;50.976;13.720;2022-10-16T19:28:56;4.80;;;1.75;;
34982;SDS011;21187;50.976;13.720;2022-10-16T19:34:01;3.08;;;1.75;;
34982;SDS011;21187;50.976;13.720;2022-10-16T19:39:09;7.25;;;2.20;;
34982;SDS011;21187;50.976;13.720;2022-10-16T19:44:14;2.30;;;1.80;;
34982;SDS011;21187;50.976;13.720;2022-10-16T19:49:17;5.57;;;3.28;;
34982;SDS011;21187;50.976;13.720;2022-10-16T19:54:22;4.13;;;2.70;;
34982;SDS011;21187;50.976;13.720;2022-10-16T19:59:24;7.65;;;3.38;;
34982;SDS011;21187;50.976;13.720;2022-10-16T20:04:26;9.90;;;3.40;;
34982;SDS011;21187;50.976;13.720;2022-10-16T20:09:27;3.38;;;2.45;;
34982;SDS011;21187;50.976;13.720;2022-10-16T20:14:29;2.38;;;1.45;;
34982;SDS011;21187;50.976;13.720;2022-10-16T20:19:31;4.85;;;1.38;;
34982;SDS011;21187;50.976;13.720;2022-10-16T20:24:34;5.05;;;1.45;;
34982;SDS011;21187;50.976;13.720;2022-10-16T20:29:36;1.65;;;1.30;;
34982;SDS011;21187;50.976;13.720;2022-10-16T20:34:38;6.75;;;1.17;;
34982;SDS011;21187;50.976;13.720;2022-10-16T20:39:41;2.25;;;1.15;;
34982;SDS011;21187;50.976;13.720;2022-10-16T20:44:43;2.33;;;1.35;;
34982;SDS011;21187;50.976;13.720;2022-10-16T20:49:51;6.22;;;2.97;;
34982;SDS011;21187;50.976;13.720;2022-10-16T20:54:53;2.90;;;2.00;;
34982;SDS011;21187;50.976;13.720;2022-10-16T20:59:55;6.10;;;1.80;;
34982;SDS011;21187;50.976;13.720;2022-10-16T21:04:57;2.50;;;1.50;;
34982;SDS011;21187;50.976;13.720;2022-10-16T21:09:59;5.13;;;1.65;;
34982;SDS011;21187;50.976;13.720;2022-10-16T21:15:01;3.45;;;1.55;;
34982;SDS011;21187;50.976;13.720;2022-10-16T21:20:16;2.88;;;1.25;;
34982;SDS011;21187;50.976;13.720;2022-10-16T21:25:18;4.28;;;1.38;;
34982;SDS011;21187;50.976;13.720;2022-10-16T21:30:20;3.45;;;1.90;;
34982;SDS011;21187;50.976;13.720;2022-10-16T21:35:22;2.60;;;1.75;;
34982;SDS011;21187;50.976;13.720;2022-10-16T21:40:24;4.35;;;1.40;;
34982;SDS011;21187;50.976;13.720;2022-10-16T21:45:26;2.78;;;1.30;;
34982;SDS011;21187;50.976;13.720;2022-10-16T21:50:28;3.05;;;1.48;;
34982;SDS011;21187;50.976;13.720;2022-10-16T21:55:29;9.35;;;1.95;;
34982;SDS011;21187;50.976;13.720;2022-10-16T22:00:35;2.72;;;1.55;;
34982;SDS011;21187;50.976;13.720;2022-10-16T22:05:37;5.07;;;1.25;;
34982;SDS011;21187;50.976;13.720;2022-10-16T22:10:39;2.10;;;1.00;;
34982;SDS011;21187;50.976;13.720;2022-10-16T22:15:47;4.28;;;1.30;;
34982;SDS011;21187;50.976;13.720;2022-10-16T22:20:52;4.32;;;1.52;;
34982;SDS011;21187;50.976;13.720;2022-10-16T22:26:01;2.22;;;1.27;;
34982;SDS011;21187;50.976;13.720;2022-10-16T22:31:09;3.92;;;1.40;;
34982;SDS011;21187;50.976;13.720;2022-10-16T22:36:13;1.95;;;1.48;;
34982;SDS011;21187;50.976;13.720;2022-10-16T22:41:15;3.92;;;1.40;;
34982;SDS011;21187;50.976;13.720;2022-10-16T22:46:19;3.00;;;1.42;;
34982;SDS011;21187;50.976;13.720;2022-10-16T22:51:24;8.10;;;2.28;;
34982;SDS011;21187;50.976;13.720;2022-10-16T22:56:27;2.70;;;1.10;;
34982;SDS011;21187;50.976;13.720;2022-10-16T23:01:31;4.60;;;1.25;;
34982;SDS011;21187;50.976;13.720;2022-10-16T23:06:35;3.88;;;1.30;;
34982;SDS011;21187;50.976;13.720;2022-10-16T23:11:37;2.30;;;1.23;;
34982;SDS011;21187;50.976;13.720;2022-10-16T23:16:39;3.25;;;1.42;;
34982;SDS011;21187;50.976;13.720;2022-10-16T23:21:41;7.68;;;1.35;;
34982;SDS011;21187;50.976;13.720;2022-10-16T23:26:43;3.15;;;1.30;;
34982;SDS011;21187;50.976;13.720;2022-10-16T23:31:45;5.05;;;1.27;;
34982;SDS011;21187;50.976;13.720;2022-10-16T23:36:47;2.50;;;1.23;;
34982;SDS011;21187;50.976;13.720;2022-10-16T23:41:49;2.50;;;1.30;;
34982;SDS011;21187;50.976;13.720;2022-10-16T23:46:51;2.97;;;1.60;;
34982;SDS011;21187;50.976;13.720;2022-10-16T23:51:53;1.77;;;1.58;;
34982;SDS011;21187;50.976;13.720;2022-10-16T23:56:54;3.28;;;1.70;;
